Meteorología y climatología de Navarra
Datos de la estación - Meteo Navarra

Estación de Aguilar de Codés GN

Altitud 736 m.


Datos desde el 02/08/2020 hasta el 03/08/2020 en horario solar
Los datos son PROVISIONALES

Anterior Página 1 de 1 Siguiente Descargar: Formato para Excel 2000 o superior   Formato csv   Formato para OpenOffice Calc
Fecha Temperatura Humedad relativa Radiación global Insolación Precipitación Vel. viento 10 m Vel. viento 10 m Dir. viento 10 m
ºC % W/m² s l/m² m/s km/h º
02/08/2020 0:00 15.4 96 0.0 0 0.3 4.2 15.0 307
02/08/2020 0:10 15.2 96 0.0 0 0.2 4.7 16.7 318
02/08/2020 0:20 15.0 97 0.0 0 0.1 3.5 12.5 321
02/08/2020 0:30 14.8 97 0.0 0 0.1 4.2 15.0 345
02/08/2020 0:40 14.7 96 0.0 0 0.1 4.2 15.2 340
02/08/2020 0:50 14.6 96 0.0 0 0.1 3.6 13.1 342
02/08/2020 1:00 14.5 96 0.0 0 0.1 3.2 11.5 330
02/08/2020 1:10 14.7 97 0.0 0 0.1 2.9 10.5 324
02/08/2020 1:20 14.6 97 0.0 0 0.1 2.7 9.6 330
02/08/2020 1:30 14.6 97 0.0 0 0.1 3.3 11.8 315
02/08/2020 1:40 14.6 97 0.0 0 0.0 3.6 12.8 312
02/08/2020 1:50 14.6 97 0.0 0 0.0 3.2 11.4 314
02/08/2020 2:00 14.6 97 0.0 0 0.0 2.4 8.5 308
02/08/2020 2:10 14.6 97 0.0 0 0.0 2.7 9.8 322
02/08/2020 2:20 14.7 96 0.0 0 0.0 2.2 7.8 315
02/08/2020 2:30 14.8 96 0.0 0 0.0 2.0 7.2 313
02/08/2020 2:40 14.8 96 0.0 0 0.0 2.8 10.0 320
02/08/2020 2:50 14.8 96 0.0 0 0.0 2.8 10.0 332
02/08/2020 3:00 14.8 96 0.0 0 0.0 3.6 12.9 308
02/08/2020 3:10 15.0 96 0.0 0 0.0 2.5 8.9 293
02/08/2020 3:20 15.0 96 0.0 0 0.0 2.4 8.6 300
02/08/2020 3:30 15.0 95 0.0 0 0.1 2.3 8.1 312
02/08/2020 3:40 14.9 96 0.0 0 0.0 2.7 9.8 316
02/08/2020 3:50 15.0 96 0.0 0 0.0 3.6 13.1 311
02/08/2020 4:00 14.9 97 0.0 0 0.0 3.6 13.0 313
02/08/2020 4:10 14.8 97 0.0 0 0.0 3.3 12.0 313
02/08/2020 4:20 14.8 97 0.0 0 0.0 3.8 13.6 315
02/08/2020 4:30 14.9 97 0.0 0 0.0 3.8 13.6 320
02/08/2020 4:40 14.9 97 0.0 0 0.0 2.3 8.4 321
02/08/2020 4:50 14.9 97 0.0 0 0.0 3.1 11.1 321
02/08/2020 5:00 14.8 97 0.0 0 0.0 3.1 11.3 321
02/08/2020 5:10 14.7 96 0.0 0 0.0 2.9 10.5 329
02/08/2020 5:20 14.9 96 15.1 42 0.0 3.0 10.9 353
02/08/2020 5:30 14.8 95 47.8 526 0.0 2.9 10.5 329
02/08/2020 5:40 15.1 95 59.5 466 0.0 2.3 8.3 321
02/08/2020 5:50 15.0 95 40.0 0 0.0 3.2 11.6 316
02/08/2020 6:00 14.8 96 90.7 348 0.0 4.2 15.0 322
02/08/2020 6:10 15.0 95 184.0 600 0.0 4.8 17.3 329
02/08/2020 6:20 14.9 94 178.1 600 0.0 5.1 18.2 324
02/08/2020 6:30 15.0 93 190.4 600 0.0 4.9 17.6 320
02/08/2020 6:40 15.1 92 288.2 600 0.0 4.4 15.9 320
02/08/2020 6:50 15.4 91 400.7 600 0.0 4.9 17.5 332
02/08/2020 7:00 15.5 89 350.5 600 0.0 5.1 18.5 322
02/08/2020 7:10 15.8 89 405.7 600 0.0 5.4 19.3 327
02/08/2020 7:20 16.2 87 515.5 600 0.0 4.7 17.0 339
02/08/2020 7:30 16.3 86 477.1 600 0.0 5.3 19.1 333
02/08/2020 7:40 15.9 85 286.8 384 0.0 5.6 20.1 334
02/08/2020 7:50 15.9 86 257.2 256 0.0 6.2 22.1 328
02/08/2020 8:00 15.8 86 243.4 124 0.0 4.8 17.4 331
02/08/2020 8:10 16.0 86 157.4 0 0.0 4.4 15.7 328
02/08/2020 8:20 16.0 86 265.9 106 0.0 4.7 16.8 324
02/08/2020 8:30 16.3 85 274.9 162 0.0 4.9 17.5 324
02/08/2020 8:40 16.0 85 128.0 0 0.0 5.3 19.1 319
02/08/2020 8:50 15.7 86 84.1 0 0.0 4.1 14.7 324
02/08/2020 9:00 15.4 88 103.0 0 0.0 4.5 16.1 316
02/08/2020 9:10 15.3 90 135.9 0 0.0 3.1 11.1 311
02/08/2020 9:20 15.5 89 124.1 0 0.0 3.3 12.0 306
02/08/2020 9:30 15.5 87 94.6 0 0.0 3.4 12.1 311
02/08/2020 9:40 15.6 86 92.1 0 0.0 3.1 11.3 319
02/08/2020 9:50 15.6 84 126.3 0 0.0 4.3 15.3 321
02/08/2020 10:00 15.7 84 134.4 0 0.0 4.5 16.1 314
02/08/2020 10:10 15.7 83 201.2 0 0.0 4.1 14.8 328
02/08/2020 10:20 16.2 81 261.8 0 0.0 3.2 11.6 310
02/08/2020 10:30 16.5 79 283.7 0 0.0 4.1 14.6 316
02/08/2020 10:40 16.6 78 357.9 0 0.0 6.2 22.5 318
02/08/2020 10:50 17.1 76 450.2 176 0.0 5.9 21.4 325
02/08/2020 11:00 17.3 74 501.0 384 0.0 6.0 21.7 318
02/08/2020 11:10 17.4 73 460.1 234 0.0 6.6 23.7 320
02/08/2020 11:20 17.5 74 573.0 540 0.0 6.7 24.0 325
02/08/2020 11:30 17.5 73 410.8 0 0.0 6.5 23.5 324
02/08/2020 11:40 17.4 73 458.7 232 0.0 7.4 26.7 322
02/08/2020 11:50 17.5 72 504.8 282 0.0 7.1 25.4 320
02/08/2020 12:00 18.0 70 633.1 528 0.0 6.7 23.9 337
02/08/2020 12:10 19.0 67 1076.0 600 0.0 6.7 23.9 319
02/08/2020 12:20 19.1 66 725.4 508 0.0 6.3 22.5 323
02/08/2020 12:30 19.6 65 867.0 600 0.0 6.5 23.5 321
02/08/2020 12:40 19.8 64 562.3 600 0.0 5.7 20.6 328
02/08/2020 12:50 19.3 66 356.8 38 0.0 5.0 17.8 326
02/08/2020 13:00 18.8 67 270.2 0 0.0 5.4 19.4 341
02/08/2020 13:10 18.4 69 286.2 0 0.0 4.4 16.0 328
02/08/2020 13:20 18.5 68 316.3 0 0.0 6.1 21.8 318
02/08/2020 13:30 18.6 69 366.5 44 0.0 5.2 18.6 329
02/08/2020 13:40 18.2 70 271.3 0 0.0 4.9 17.8 326
02/08/2020 13:50 18.0 71 662.2 430 0.0 5.1 18.2 336
02/08/2020 14:00 18.6 68 805.0 600 0.0 5.6 20.2 354
02/08/2020 14:10 18.9 66 792.7 582 0.0 6.2 22.5 356
02/08/2020 14:20 19.0 65 967.0 600 0.0 7.8 28.2 340
02/08/2020 14:30 18.9 65 1031.0 600 0.0 8.5 30.7 349
02/08/2020 14:40 19.0 65 693.0 518 0.0 7.6 27.5 344
02/08/2020 14:50 19.1 66 617.9 386 0.0 4.8 17.1 343
02/08/2020 15:00 18.3 67 410.5 228 0.0 5.3 18.9 330
02/08/2020 15:10 18.0 69 409.9 286 0.0 5.7 20.5 353
02/08/2020 15:20 17.8 71 186.4 4 0.0 6.7 24.2 352
02/08/2020 15:30 16.9 74 283.8 126 0.0 6.1 21.8 326
02/08/2020 15:40 17.1 73 425.8 524 0.0 6.2 22.3 327
02/08/2020 15:50 17.2 73 317.2 114 0.0 6.5 23.3 324
02/08/2020 16:00 17.2 73 329.9 212 0.0 6.7 24.2 329
02/08/2020 16:10 17.1 72 312.4 158 0.0 5.8 20.7 336
02/08/2020 16:20 17.3 72 239.8 0 0.0 4.5 16.1 339
02/08/2020 16:30 17.3 72 216.9 0 0.0 5.0 18.1 329
02/08/2020 16:40 17.1 71 280.9 166 0.0 5.4 19.3 319
02/08/2020 16:50 17.5 70 380.6 468 0.0 5.8 20.8 322
02/08/2020 17:00 17.2 71 176.6 0 0.0 6.3 22.8 326
02/08/2020 17:10 16.8 72 153.6 0 0.0 7.0 25.2 319
02/08/2020 17:20 16.8 73 143.4 0 0.0 6.5 23.3 318
02/08/2020 17:30 16.8 72 115.3 0 0.0 6.2 22.3 334
02/08/2020 17:40 16.7 72 98.2 0 0.0 6.3 22.8 325
02/08/2020 17:50 16.7 71 97.8 0 0.0 6.0 21.5 325
02/08/2020 18:00 16.7 73 67.1 0 0.0 5.3 18.9 331
02/08/2020 18:10 16.4 74 53.9 0 0.0 5.6 20.1 327
02/08/2020 18:20 16.4 73 52.2 0 0.0 6.4 23.0 322
02/08/2020 18:30 16.2 73 49.0 0 0.0 7.6 27.2 320
02/08/2020 18:40 15.9 74 51.1 0 0.0 8.4 30.3 316
02/08/2020 18:50 15.8 75 35.7 0 0.0 7.0 25.1 324
02/08/2020 19:00 15.8 76 24.6 0 0.0 8.1 29.0 319
02/08/2020 19:10 15.7 77 17.5 0 0.0 7.5 27.0 319
02/08/2020 19:20 15.8 76 0.1 0 0.0 7.0 25.2 325
02/08/2020 19:30 15.5 77 0.0 0 0.0 6.8 24.6 320
02/08/2020 19:40 15.4 78 0.0 0 0.0 7.1 25.5 328
02/08/2020 19:50 15.3 78 0.0 0 0.0 7.4 26.6 323
02/08/2020 20:00 15.3 78 0.0 0 0.0 7.7 27.5 332
02/08/2020 20:10 15.2 78 0.0 0 0.0 7.6 27.3 326
02/08/2020 20:20 15.1 78 0.0 0 0.0 7.7 27.8 322
02/08/2020 20:30 15.1 78 0.0 0 0.0 7.5 27.1 334
02/08/2020 20:40 14.9 80 0.0 0 0.0 4.9 17.7 323
02/08/2020 20:50 14.6 81 0.0 0 0.0 3.6 13.1 310
02/08/2020 21:00 14.6 81 0.0 0 0.0 4.4 15.8 323
02/08/2020 21:10 14.7 80 0.0 0 0.0 4.7 16.9 326
02/08/2020 21:20 14.7 80 0.0 0 0.0 6.5 23.2 323
02/08/2020 21:30 14.8 80 0.0 0 0.0 7.1 25.5 320
02/08/2020 21:40 14.7 79 0.0 0 0.0 5.8 20.9 318
02/08/2020 21:50 14.8 79 0.0 0 0.0 7.1 25.6 319
02/08/2020 22:00 14.8 78 0.0 0 0.0 6.4 23.1 322
02/08/2020 22:10 14.8 79 0.0 0 0.0 5.5 19.7 320
02/08/2020 22:20 14.7 81 0.0 0 0.0 3.5 12.7 319
02/08/2020 22:30 14.7 80 0.0 0 0.0 4.4 16.0 316
02/08/2020 22:40 14.7 81 0.0 0 0.0 4.2 15.3 315
02/08/2020 22:50 14.5 82 0.0 0 0.0 4.1 14.9 313
02/08/2020 23:00 14.3 84 0.0 0 0.0 4.5 16.3 324
02/08/2020 23:10 14.2 86 0.0 0 0.0 4.3 15.6 325
02/08/2020 23:20 14.2 85 0.0 0 0.0 3.6 12.9 329
02/08/2020 23:30 14.2 84 0.0 0 0.0 3.6 13.1 309
02/08/2020 23:40 14.2 83 0.0 0 0.0 4.2 15.2 317
02/08/2020 23:50 14.1 83 0.0 0 0.0 3.5 12.5 307
Anterior Página 1 de 1 Siguiente

NOTA: Tipo de datos según el color:
   - Valores diarios o 10 minutos correctos
   - Valores diarios calculados a partir de un número de datos 10 minutos menor que 144 y mayor que 120, o de un número de datos semihorarios menor que 48 y mayor que 40 (caso de las estaciones de INTIA y del Ministerio)
   - Valores diez minutos estimados


Contacto        Enlaces        Aviso legal